Jrs Mira — V2FS4 — position and weather

sailwx.info

Track history (hours):
 
Tides and Currents Weather Stations Pressure Air Temp Water Temp Dewpoint Dewpoint Depression Visibility Wind Speed Wind Dir Waves Ship Positions

Jrs Mira

Last reported at 2015-Aug-27 20:33 UTC. Time now 2015-Aug-27 20:44 UTC.
Position N 39°02' E 002°46'.

Length 107 m; draft 8.4 m.

Type: Cargo ship. MMSI: 305780000.

Date/timePositionNaut miles runAvg speedWind from/ knotsBaromVisibWave heightAir tempDewpointWater temp
2015-Aug-27 20:33N 39°02' E 002°46'1111.2
2015-Aug-27 19:33N 39°00' E 003°00'1111.1
2015-Aug-27 18:33N 38°58' E 003°14'1111.2
2015-Aug-27 17:33N 38°55' E 003°28'1111.3
2015-Aug-27 16:33N 38°53' E 003°42'1111.4
2015-Aug-27 15:33N 38°51' E 003°57'1211.5
2015-Aug-27 14:33N 38°48' E 004°11'1511.3
2015-Aug-27 13:13N 38°45' E 004°30'6811.4
2015-Aug-27 07:15N 38°31' E 005°56'1111.1
2015-Aug-27 06:14N 38°28' E 006°09'811.3
2015-Aug-27 05:33N 38°26' E 006°19'8611.7
2015-Aug-26 22:10N 38°04' E 008°05'1111.8
2015-Aug-26 21:14N 38°02' E 008°19'811.6
2015-Aug-26 20:32N 38°01' E 008°29'1211.6
2015-Aug-26 19:33N 37°59' E 008°44'1111.4
2015-Aug-26 18:33N 37°58' E 008°58'1111.3
2015-Aug-26 17:33N 37°56' E 009°12'1111.2
2015-Aug-26 16:33N 37°54' E 009°26'1110.9
2015-Aug-26 15:33N 37°52' E 009°39'1110.9
2015-Aug-26 14:33N 37°49' E 009°53'12311.1
2015-Aug-26 03:32N 37°11' E 012°20'1111.4
2015-Aug-26 02:33N 37°07' E 012°33'1111.4
2015-Aug-26 01:33N 37°02' E 012°46'1111.3
2015-Aug-26 00:33N 36°58' E 012°59'1111.2
2015-Aug-25 23:33N 36°54' E 013°12'1111.4
2015-Aug-25 22:33N 36°50' E 013°26'1111.4
2015-Aug-25 21:33N 36°46' E 013°39'1111.2
2015-Aug-25 20:33N 36°42' E 013°52'1111.3
2015-Aug-25 19:33N 36°38' E 014°05'1111.4
2015-Aug-25 18:33N 36°34' E 014°18'1111.3
2015-Aug-25 17:33N 36°30' E 014°32'1110.9
2015-Aug-25 16:33N 36°28' E 014°45'1111.0
2015-Aug-25 15:33N 36°28' E 014°59'1110.9
2015-Aug-25 14:33N 36°28' E 015°12'1110.6
2015-Aug-25 13:30N 36°28' E 015°26'1111.0
2015-Aug-25 12:33N 36°28' E 015°39'1110.9
2015-Aug-25 11:32N 36°27' E 015°53'2711.0
2015-Aug-25 09:04N 36°27' E 016°27'37410.2
2015-Aug-23 20:27N 37°36' E 024°07'1111.3
2015-Aug-23 19:31N 37°44' E 024°16'  
2015-Aug-19 02:29N 38°50' E 025°12'3311.2
2015-Aug-18 23:31N 38°19' E 024°54'6810.6
2015-Aug-18 17:08N 37°36' E 023°48'711.3
2015-Aug-18 16:33N 37°40' E 023°42'1211.7
2015-Aug-18 15:33N 37°51' E 023°37'9 9.3
2015-Aug-18 14:33N 38°00' E 023°33'2 1.7
2015-Aug-18 13:29N 38°02' E 023°32'0 0.0
2015-Aug-18 12:26N 38°02' E 023°32'0 0.0
2015-Aug-18 11:32N 38°02' E 023°32'0 0.0
2015-Aug-18 10:32N 38°02' E 023°32'0 0.0
2015-Aug-18 09:32N 38°02' E 023°32'0 0.0
2015-Aug-18 08:32N 38°02' E 023°32'0 0.0
2015-Aug-18 07:32N 38°02' E 023°32'0 0.0
2015-Aug-18 06:26N 38°02' E 023°32'0 0.0
2015-Aug-18 05:32N 38°02' E 023°32'0 0.0
2015-Aug-18 04:32N 38°02' E 023°32'0 0.0
2015-Aug-18 04:08N 38°02' E 023°32'0 0.0
2015-Aug-18 03:29N 38°02' E 023°32'0 0.0
2015-Aug-18 02:32N 38°02' E 023°32'0 0.0
2015-Aug-18 01:32N 38°02' E 023°32'0 0.0
2015-Aug-18 00:29N 38°02' E 023°32'0 0.0
2015-Aug-17 23:29N 38°02' E 023°32'0 0.0
2015-Aug-17 22:29N 38°02' E 023°32'0 0.0
2015-Aug-17 21:32N 38°02' E 023°32'  
Track history (hours):
 
Tides and Currents Weather Stations Pressure Air Temp Water Temp Dewpoint Dewpoint Depression Visibility Wind Speed Wind Dir Waves Ship Positions

Jrs Mira

Last reported at 2015-Aug-27 20:33 UTC. Time now 2015-Aug-27 20:44 UTC.
Position N 39°02' E 002°46'.

Length 107 m; draft 8.4 m.

Type: Cargo ship. MMSI: 305780000.

Date/timePositionNaut miles runAvg speedWind from/ knotsBaromVisibWave heightAir tempDewpointWater temp
2015-Aug-27 20:33N 39°02' E 002°46'1111.2
2015-Aug-27 19:33N 39°00' E 003°00'1111.1
2015-Aug-27 18:33N 38°58' E 003°14'1111.2
2015-Aug-27 17:33N 38°55' E 003°28'1111.3
2015-Aug-27 16:33N 38°53' E 003°42'1111.4
2015-Aug-27 15:33N 38°51' E 003°57'1211.5
2015-Aug-27 14:33N 38°48' E 004°11'1511.3
2015-Aug-27 13:13N 38°45' E 004°30'6811.4
2015-Aug-27 07:15N 38°31' E 005°56'1111.1
2015-Aug-27 06:14N 38°28' E 006°09'811.3
2015-Aug-27 05:33N 38°26' E 006°19'8611.7
2015-Aug-26 22:10N 38°04' E 008°05'1111.8
2015-Aug-26 21:14N 38°02' E 008°19'811.6
2015-Aug-26 20:32N 38°01' E 008°29'1211.6
2015-Aug-26 19:33N 37°59' E 008°44'1111.4
2015-Aug-26 18:33N 37°58' E 008°58'1111.3
2015-Aug-26 17:33N 37°56' E 009°12'1111.2
2015-Aug-26 16:33N 37°54' E 009°26'1110.9
2015-Aug-26 15:33N 37°52' E 009°39'1110.9
2015-Aug-26 14:33N 37°49' E 009°53'12311.1
2015-Aug-26 03:32N 37°11' E 012°20'1111.4
2015-Aug-26 02:33N 37°07' E 012°33'1111.4
2015-Aug-26 01:33N 37°02' E 012°46'1111.3
2015-Aug-26 00:33N 36°58' E 012°59'1111.2
2015-Aug-25 23:33N 36°54' E 013°12'1111.4
2015-Aug-25 22:33N 36°50' E 013°26'1111.4
2015-Aug-25 21:33N 36°46' E 013°39'1111.2
2015-Aug-25 20:33N 36°42' E 013°52'1111.3
2015-Aug-25 19:33N 36°38' E 014°05'1111.4
2015-Aug-25 18:33N 36°34' E 014°18'1111.3
2015-Aug-25 17:33N 36°30' E 014°32'1110.9
2015-Aug-25 16:33N 36°28' E 014°45'1111.0
2015-Aug-25 15:33N 36°28' E 014°59'1110.9
2015-Aug-25 14:33N 36°28' E 015°12'1110.6
2015-Aug-25 13:30N 36°28' E 015°26'1111.0
2015-Aug-25 12:33N 36°28' E 015°39'1110.9
2015-Aug-25 11:32N 36°27' E 015°53'2711.0
2015-Aug-25 09:04N 36°27' E 016°27'37410.2
2015-Aug-23 20:27N 37°36' E 024°07'1111.3
2015-Aug-23 19:31N 37°44' E 024°16'  
2015-Aug-19 02:29N 38°50' E 025°12'3311.2
2015-Aug-18 23:31N 38°19' E 024°54'6810.6
2015-Aug-18 17:08N 37°36' E 023°48'711.3
2015-Aug-18 16:33N 37°40' E 023°42'1211.7
2015-Aug-18 15:33N 37°51' E 023°37'9 9.3
2015-Aug-18 14:33N 38°00' E 023°33'2 1.7
2015-Aug-18 13:29N 38°02' E 023°32'0 0.0
2015-Aug-18 12:26N 38°02' E 023°32'0 0.0
2015-Aug-18 11:32N 38°02' E 023°32'0 0.0
2015-Aug-18 10:32N 38°02' E 023°32'0 0.0
2015-Aug-18 09:32N 38°02' E 023°32'0 0.0
2015-Aug-18 08:32N 38°02' E 023°32'0 0.0
2015-Aug-18 07:32N 38°02' E 023°32'0 0.0
2015-Aug-18 06:26N 38°02' E 023°32'0 0.0
2015-Aug-18 05:32N 38°02' E 023°32'0 0.0
2015-Aug-18 04:32N 38°02' E 023°32'0 0.0
2015-Aug-18 04:08N 38°02' E 023°32'0 0.0
2015-Aug-18 03:29N 38°02' E 023°32'0 0.0
2015-Aug-18 02:32N 38°02' E 023°32'0 0.0
2015-Aug-18 01:32N 38°02' E 023°32'0 0.0
2015-Aug-18 00:29N 38°02' E 023°32'0 0.0
2015-Aug-17 23:29N 38°02' E 023°32'0 0.0
2015-Aug-17 22:29N 38°02' E 023°32'0 0.0
2015-Aug-17 21:32N 38°02' E 023°32'  

Dump ship's entire track history